Time;durP1;ratioP1;P1;durP2;ratioP2;P2;SDS_P1;SDS_P2;PMS_P1;PMS_P2;Temp;Humidity;BMP_temperature;BMP_pressure;BME280_temperature;BME280_humidity;BME280_pressure;Samples;Min_cycle;Max_cycle;Signal;HPM_P1;HPM_P2
2022/01/19 00:02:24;;;;;;;7.28;2.03;;;10.50;73.20;;;;;;5081133;28;20047;-79
2022/01/19 00:05:28;;;;;;;3.25;1.70;;;10.50;73.50;;;;;;5093940;28;20035;-80
2022/01/19 00:08:32;;;;;;;2.47;1.73;;;10.50;73.80;;;;;;5081108;28;20051;-79
2022/01/19 00:11:36;;;;;;;4.25;2.08;;;10.40;74.30;;;;;;5093117;28;20055;-79
2022/01/19 00:14:40;;;;;;;3.38;2.03;;;10.40;75.10;;;;;;5093785;28;20042;-79
2022/01/19 00:17:44;;;;;;;9.73;3.72;;;10.30;75.90;;;;;;5093931;28;20039;-79
2022/01/19 00:20:50;;;;;;;10.73;3.88;;;10.20;76.60;;;;;;5093618;28;20051;-79
2022/01/19 00:23:54;;;;;;;8.57;4.32;;;10.10;77.70;;;;;;5093667;28;20068;-79
2022/01/19 00:26:58;;;;;;;10.63;4.93;;;10.00;78.40;;;;;;5093321;28;20051;-80
2022/01/19 00:30:02;;;;;;;8.52;5.03;;;10.00;79.20;;;;;;5080889;28;20114;-79
2022/01/19 00:33:06;;;;;;;9.57;5.95;;;10.00;79.50;;;;;;5080685;28;20054;-81
2022/01/19 00:36:11;;;;;;;13.43;5.45;;;9.90;80.10;;;;;;5093244;28;20055;-80
2022/01/19 00:39:15;;;;;;;11.43;6.10;;;9.80;80.60;;;;;;5093050;28;20043;-80
2022/01/19 00:42:20;;;;;;;11.75;5.30;;;9.70;80.80;;;;;;5080444;28;20043;-81
2022/01/19 00:45:25;;;;;;;12.00;5.07;;;9.70;81.20;;;;;;5080759;28;20494;-80
2022/01/19 00:48:30;;;;;;;23.60;6.05;;;9.70;81.20;;;;;;5092942;28;20055;-80
2022/01/19 00:51:34;;;;;;;21.90;5.35;;;9.70;80.90;;;;;;5092880;28;20106;-80
2022/01/19 00:54:39;;;;;;;11.63;4.85;;;9.50;80.30;;;;;;5093105;28;20055;-80
2022/01/19 00:57:43;;;;;;;15.15;5.53;;;9.20;80.60;;;;;;5092928;28;20038;-81
2022/01/19 01:00:48;;;;;;;12.55;5.15;;;9.10;80.20;;;;;;5092264;28;20043;-80
2022/01/19 01:03:51;;;;;;;9.85;4.93;;;8.90;81.40;;;;;;5080222;28;20051;-80
2022/01/19 01:06:55;;;;;;;8.40;4.45;;;8.80;81.50;;;;;;5079921;28;20040;-81
2022/01/19 01:10:00;;;;;;;10.68;4.60;;;8.80;82.10;;;;;;5092349;28;20040;-80
2022/01/19 01:19:36;;;;;;;9.27;4.97;;;8.70;82.20;;;;;;5079844;28;20399;-81
2022/01/19 01:22:42;;;;;;;11.70;5.45;;;8.70;83.30;;;;;;5079946;28;20036;-80
2022/01/19 01:25:48;;;;;;;12.32;6.22;;;8.70;81.90;;;;;;5079775;28;20047;-80
2022/01/19 01:28:53;;;;;;;17.92;6.57;;;8.60;81.90;;;;;;5079534;28;20055;-80
2022/01/19 01:31:57;;;;;;;10.45;4.32;;;8.50;83.50;;;;;;5079328;28;20043;-82
2022/01/19 01:35:02;;;;;;;14.48;7.68;;;8.70;81.60;;;;;;5092309;28;20051;-80
2022/01/19 01:38:09;;;;;;;12.82;6.50;;;8.80;83.70;;;;;;5079651;28;20050;-79
2022/01/19 01:41:14;;;;;;;12.27;6.28;;;8.90;82.60;;;;;;5092118;28;20039;-80
2022/01/19 01:44:22;;;;;;;10.02;5.00;;;9.00;81.10;;;;;;5079352;28;20043;-80
2022/01/19 01:47:27;;;;;;;6.15;3.92;;;9.10;79.90;;;;;;5068097;28;20039;-80
2022/01/19 01:53:57;;;;;;;6.63;4.00;;;9.30;78.10;;;;;;5079882;28;20055;-81
2022/01/19 01:57:01;;;;;;;9.55;5.18;;;9.30;78.00;;;;;;5091468;28;20044;-81
2022/01/19 02:00:08;;;;;;;13.48;7.43;;;9.30;78.10;;;;;;5078760;28;20040;-80
2022/01/19 02:03:22;;;;;;;16.00;9.93;;;9.10;77.80;;;;;;5091636;28;20047;-80
2022/01/19 02:06:33;;;;;;;16.48;9.48;;;8.80;78.20;;;;;;5079068;28;20051;-80
2022/01/19 02:09:54;;;;;;;18.48;11.10;;;8.50;79.60;;;;;;5079221;28;20074;-80
2022/01/19 02:22:48;;;;;;;18.67;11.05;;;8.30;80.10;;;;;;5069834;28;20043;-81
2022/01/19 02:25:59;;;;;;;22.10;11.73;;;8.10;79.20;;;;;;5078858;28;20043;-81
2022/01/19 02:29:18;;;;;;;21.83;12.88;;;8.00;79.90;;;;;;5078756;28;20063;-81
2022/01/19 02:42:37;;;;;;;24.38;14.30;;;7.70;81.50;;;;;;5078393;28;20039;-81
2022/01/19 02:49:16;;;;;;;24.00;13.88;;;7.70;82.20;;;;;;5090867;28;20403;-81
2022/01/19 02:52:22;;;;;;;20.70;12.90;;;7.60;82.70;;;;;;5091327;28;20417;-81
2022/01/19 02:55:28;;;;;;;26.25;12.98;;;7.70;82.20;;;;;;5091235;28;20518;-81
2022/01/19 02:58:38;;;;;;;22.45;13.07;;;7.70;81.80;;;;;;5090987;28;20050;-81
2022/01/19 03:08:47;;;;;;;20.65;11.35;;;7.50;82.10;;;;;;5078524;28;20058;-81
2022/01/19 03:11:55;;;;;;;18.52;11.15;;;7.40;82.80;;;;;;5078710;28;20411;-80
2022/01/19 03:15:00;;;;;;;22.40;11.95;;;7.30;83.40;;;;;;5090972;28;20043;-81
2022/01/19 03:18:06;;;;;;;21.67;11.00;;;7.30;83.60;;;;;;5078526;28;20051;-81
2022/01/19 03:21:10;;;;;;;15.98;10.60;;;7.20;84.30;;;;;;5078509;28;20051;-81
2022/01/19 03:24:14;;;;;;;18.48;10.25;;;7.40;82.30;;;;;;5079729;28;20106;-81
2022/01/19 03:27:19;;;;;;;22.58;10.27;;;7.30;81.60;;;;;;5090735;28;20051;-81
2022/01/19 03:30:29;;;;;;;20.23;10.23;;;7.10;82.60;;;;;;5078121;28;20113;-82
2022/01/19 03:33:34;;;;;;;22.65;10.05;;;7.00;83.30;;;;;;5090637;28;20051;-81
2022/01/19 03:36:41;;;;;;;18.98;10.25;;;6.90;83.40;;;;;;5079094;28;20046;-81
2022/01/19 03:39:45;;;;;;;19.15;10.98;;;6.80;83.90;;;;;;5090643;28;20043;-81
2022/01/19 03:42:49;;;;;;;20.98;10.63;;;6.80;83.40;;;;;;5066913;28;20051;-81
2022/01/19 03:45:59;;;;;;;16.92;10.60;;;6.80;83.60;;;;;;5078225;28;20043;-81
2022/01/19 03:49:12;;;;;;;17.90;10.52;;;6.90;82.60;;;;;;5094354;28;20059;-81
2022/01/19 03:52:19;;;;;;;19.17;9.77;;;6.80;82.80;;;;;;5082034;28;20043;-81
2022/01/19 03:55:23;;;;;;;16.95;9.35;;;6.70;83.80;;;;;;5070460;28;20051;-81
2022/01/19 03:58:28;;;;;;;17.15;9.07;;;6.70;84.20;;;;;;5081902;28;20063;-81
2022/01/19 04:01:32;;;;;;;17.02;10.05;;;6.80;82.70;;;;;;5081887;28;20047;-81
2022/01/19 04:08:10;;;;;;;20.23;10.65;;;6.60;83.40;;;;;;5081084;28;20529;-81
2022/01/19 04:11:17;;;;;;;21.58;10.38;;;6.50;84.30;;;;;;5081353;28;20039;-79
2022/01/19 04:14:22;;;;;;;19.85;10.75;;;6.40;84.40;;;;;;5069841;28;20047;-79
2022/01/19 04:17:26;;;;;;;18.63;9.93;;;6.40;84.50;;;;;;5081034;28;20043;-79
2022/01/19 04:20:37;;;;;;;18.80;9.63;;;6.50;84.80;;;;;;5081021;28;20047;-79
2022/01/19 04:23:42;;;;;;;20.00;9.95;;;6.30;84.40;;;;;;5081005;28;20043;-80
2022/01/19 04:26:56;;;;;;;28.65;11.07;;;6.40;84.90;;;;;;5081141;28;20047;-79
2022/01/19 04:30:10;;;;;;;19.65;9.85;;;6.40;84.30;;;;;;5080726;28;20051;-79
2022/01/19 04:33:23;;;;;;;22.42;9.98;;;6.20;84.30;;;;;;5080343;28;20055;-79
2022/01/19 04:36:59;;;;;;;20.38;9.63;;;6.10;84.90;;;;;;5080826;28;20047;-79
2022/01/19 05:04:06;;;;;;;9.85;5.57;;;7.10;77.10;;;;;;5080408;28;20059;-80
2022/01/19 05:07:22;;;;;;;14.30;5.75;;;6.80;77.90;;;;;;5080137;28;20376;-79
2022/01/19 05:13:51;;;;;;;10.68;4.85;;;6.70;77.50;;;;;;5080370;28;20039;-80
2022/01/19 05:16:56;;;;;;;10.38;4.57;;;6.90;76.70;;;;;;5080289;28;20502;-80
2022/01/19 05:20:00;;;;;;;6.55;4.03;;;7.00;76.50;;;;;;5079670;28;20506;-79
2022/01/19 05:23:04;;;;;;;7.53;4.53;;;7.10;76.30;;;;;;5079584;28;20036;-80
2022/01/19 05:26:09;;;;;;;10.82;4.25;;;7.10;75.60;;;;;;5079763;28;20032;-80
2022/01/19 05:29:17;;;;;;;8.05;4.18;;;7.10;75.20;;;;;;5080174;28;20051;-80
2022/01/19 05:32:22;;;;;;;10.18;5.05;;;7.20;75.00;;;;;;5068434;28;20032;-80
2022/01/19 05:35:27;;;;;;;16.98;6.50;;;7.20;75.80;;;;;;5079878;28;20047;-80
2022/01/19 05:39:05;;;;;;;13.00;7.18;;;7.30;76.00;;;;;;5092162;28;20039;-80
2022/01/19 05:42:19;;;;;;;12.13;5.72;;;7.30;76.40;;;;;;5079651;28;20069;-80
2022/01/19 05:45:25;;;;;;;11.88;5.75;;;7.20;77.20;;;;;;5103050;28;20504;-80
2022/01/19 05:48:31;;;;;;;9.35;5.40;;;7.20;78.00;;;;;;5079262;28;20051;-81
2022/01/19 05:51:35;;;;;;;10.38;4.97;;;7.10;77.90;;;;;;5079299;28;20479;-80
2022/01/19 05:54:39;;;;;;;12.70;5.38;;;7.10;77.20;;;;;;5079437;28;20482;-81
2022/01/19 05:57:44;;;;;;;17.20;6.32;;;7.10;77.50;;;;;;5079218;28;20591;-81
2022/01/19 06:00:50;;;;;;;10.60;4.80;;;6.90;78.00;;;;;;5079294;28;20047;-81
2022/01/19 06:03:54;;;;;;;10.48;4.00;;;6.90;77.60;;;;;;5079244;28;20055;-80
2022/01/19 06:07:39;;;;;;;10.15;3.88;;;6.80;78.10;;;;;;5083930;28;20047;-81
2022/01/19 06:11:09;;;;;;;9.70;4.50;;;6.90;76.90;;;;;;5091082;28;20043;-81
2022/01/19 06:14:17;;;;;;;15.30;5.03;;;6.80;76.50;;;;;;5068763;28;20044;-81
2022/01/19 06:17:21;;;;;;;10.07;4.90;;;6.80;77.30;;;;;;5078952;28;20047;-80
2022/01/19 06:20:25;;;;;;;11.70;5.63;;;6.80;76.90;;;;;;5055600;28;20587;-80
2022/01/19 06:23:29;;;;;;;17.70;7.88;;;6.70;76.50;;;;;;5067755;28;20043;-80
2022/01/19 06:26:45;;;;;;;15.52;7.93;;;6.70;77.60;;;;;;5079097;28;20046;-80
2022/01/19 06:29:50;;;;;;;12.65;6.47;;;6.70;76.80;;;;;;5091126;28;20411;-80
2022/01/19 06:32:54;;;;;;;20.58;8.77;;;6.80;76.80;;;;;;5078615;28;20059;-81
2022/01/19 06:35:59;;;;;;;14.68;7.03;;;6.80;77.60;;;;;;5067276;28;20047;-80
2022/01/19 06:39:19;;;;;;;16.05;8.10;;;6.70;76.90;;;;;;5067290;28;20047;-81
2022/01/19 06:42:29;;;;;;;16.55;9.88;;;6.70;77.70;;;;;;5091161;28;20047;-78
2022/01/19 06:45:33;;;;;;;27.38;11.93;;;6.90;76.30;;;;;;5067190;28;20047;-79
2022/01/19 06:48:37;;;;;;;28.92;10.15;;;7.00;75.90;;;;;;5078501;28;20055;-79
2022/01/19 06:51:44;;;;;;;17.25;8.55;;;6.90;76.10;;;;;;5067478;28;20047;-80
2022/01/19 06:54:49;;;;;;;18.15;7.45;;;6.90;77.50;;;;;;5067161;28;20051;-79
2022/01/19 06:57:53;;;;;;;16.83;7.40;;;7.00;76.10;;;;;;5078320;28;20039;-80
2022/01/19 07:01:23;;;;;;;19.90;8.60;;;6.90;77.30;;;;;;5067784;28;20047;-83
2022/01/19 07:04:36;;;;;;;13.27;7.60;;;7.00;77.20;;;;;;5068494;28;20039;-79
2022/01/19 07:07:41;;;;;;;19.80;8.43;;;6.90;77.00;;;;;;5067065;28;20046;-80
2022/01/19 07:10:46;;;;;;;21.50;8.85;;;7.00;76.80;;;;;;5078703;28;20051;-79
2022/01/19 07:13:50;;;;;;;23.88;11.73;;;7.00;76.80;;;;;;5067164;28;20044;-79
2022/01/19 07:16:55;;;;;;;19.27;8.98;;;7.00;76.60;;;;;;5077900;28;20052;-79
2022/01/19 07:19:59;;;;;;;22.63;10.00;;;7.00;76.20;;;;;;5077907;28;20043;-75
2022/01/19 07:23:03;;;;;;;17.95;10.57;;;7.10;76.90;;;;;;5080583;28;20047;-75
2022/01/19 07:26:08;;;;;;;24.23;10.30;;;7.30;76.80;;;;;;5070181;28;20043;-76
2022/01/19 07:29:14;;;;;;;21.20;11.50;;;7.30;75.80;;;;;;5081932;28;20055;-76
2022/01/19 07:32:22;;;;;;;20.98;11.68;;;7.40;75.70;;;;;;5081721;28;20039;-73
2022/01/19 07:35:27;;;;;;;24.27;10.85;;;7.50;75.60;;;;;;5082134;28;20071;-77
2022/01/19 07:38:31;;;;;;;29.05;12.75;;;7.70;75.00;;;;;;5081821;28;20043;-76
2022/01/19 07:41:35;;;;;;;22.20;12.07;;;7.70;74.30;;;;;;5094301;28;20055;-74
2022/01/19 07:44:59;;;;;;;26.20;12.48;;;7.70;74.80;;;;;;5084459;28;20062;-73
2022/01/19 07:48:06;;;;;;;20.58;11.02;;;7.80;75.00;;;;;;5094026;28;20421;-72
2022/01/19 07:51:38;;;;;;;22.55;10.07;;;7.80;75.60;;;;;;5080348;28;20431;-72
2022/01/19 07:55:12;;;;;;;24.75;11.93;;;8.00;74.90;;;;;;5079831;28;20063;-72
2022/01/19 07:58:46;;;;;;;25.95;12.43;;;8.10;75.10;;;;;;5083926;28;20047;-72
2022/01/19 08:01:56;;;;;;;24.42;12.85;;;8.10;75.00;;;;;;5079691;28;20035;-72
2022/01/19 08:05:23;;;;;;;26.67;12.80;;;8.10;75.00;;;;;;5087273;28;20043;-71
2022/01/19 08:08:29;;;;;;;27.25;14.80;;;8.20;75.70;;;;;;5080957;28;20039;-72
2022/01/19 08:11:33;;;;;;;31.85;15.38;;;8.40;75.90;;;;;;5081087;28;20667;-71
2022/01/19 08:14:54;;;;;;;27.15;14.25;;;8.40;75.30;;;;;;5081280;28;20035;-71
2022/01/19 08:18:07;;;;;;;27.80;14.25;;;8.50;75.80;;;;;;5081296;28;20506;-73
2022/01/19 08:21:11;;;;;;;24.08;13.52;;;8.60;75.50;;;;;;5080943;28;20047;-73
2022/01/19 08:24:25;;;;;;;26.80;11.93;;;8.70;75.40;;;;;;5080710;28;20051;-73
2022/01/19 08:27:30;;;;;;;21.65;11.55;;;8.90;75.20;;;;;;5080946;28;20047;-72
2022/01/19 08:30:41;;;;;;;16.88;10.35;;;9.10;74.60;;;;;;5080584;28;20526;-71
2022/01/19 08:33:45;;;;;;;17.30;10.10;;;9.20;74.40;;;;;;5080060;28;20059;-71
2022/01/19 08:36:54;;;;;;;16.35;8.85;;;9.40;74.00;;;;;;5080439;28;20047;-72
2022/01/19 08:40:06;;;;;;;22.48;9.80;;;9.60;73.10;;;;;;5080293;28;20388;-72
2022/01/19 08:43:14;;;;;;;19.33;10.02;;;9.90;72.40;;;;;;5069788;28;20043;-70
2022/01/19 08:46:18;;;;;;;14.68;7.80;;;10.10;71.50;;;;;;5080520;28;20050;-73
2022/01/19 08:49:45;;;;;;;15.70;7.30;;;10.40;69.80;;;;;;5092646;28;20051;-73
2022/01/19 08:52:52;;;;;;;13.73;6.65;;;10.70;69.30;;;;;;5092813;28;20507;-72
2022/01/19 08:56:07;;;;;;;13.48;6.88;;;10.90;67.30;;;;;;5070283;28;20043;-71
2022/01/19 08:59:11;;;;;;;19.48;7.15;;;11.10;67.60;;;;;;5092231;28;20507;-72
2022/01/19 09:02:15;;;;;;;16.88;7.32;;;11.30;66.30;;;;;;5092844;28;20047;-74
2022/01/19 09:05:19;;;;;;;15.68;8.32;;;11.50;66.40;;;;;;5092614;28;20050;-75
2022/01/19 09:08:23;;;;;;;15.10;6.20;;;11.80;66.20;;;;;;5092227;28;20067;-72
2022/01/19 09:11:27;;;;;;;9.95;5.95;;;11.90;65.20;;;;;;5092349;28;20403;-73
2022/01/19 09:14:31;;;;;;;10.00;6.05;;;12.10;64.70;;;;;;5092459;28;20051;-74
2022/01/19 09:17:36;;;;;;;11.07;5.45;;;12.30;64.20;;;;;;5079855;28;20474;-73
2022/01/19 09:20:40;;;;;;;13.20;5.78;;;12.40;63.30;;;;;;5092174;28;20043;-72
2022/01/19 09:23:44;;;;;;;12.20;6.00;;;12.60;61.20;;;;;;5079457;28;20388;-76
2022/01/19 09:26:48;;;;;;;11.50;6.10;;;12.70;61.90;;;;;;5091722;28;20506;-74
2022/01/19 09:29:53;;;;;;;10.57;6.13;;;12.80;62.10;;;;;;5091482;28;20051;-75
2022/01/19 09:33:08;;;;;;;9.80;5.57;;;12.90;61.60;;;;;;5090653;28;20403;-73
2022/01/19 09:39:35;;;;;;;10.80;5.00;;;13.20;59.70;;;;;;5092018;28;20047;-74
2022/01/19 09:42:40;;;;;;;17.10;5.53;;;13.50;56.40;;;;;;5091814;28;20051;-73
2022/01/19 09:45:44;;;;;;;10.50;5.28;;;13.60;56.80;;;;;;5090742;28;20039;-73
2022/01/19 09:48:48;;;;;;;18.02;7.07;;;13.80;55.60;;;;;;5091607;28;20047;-73
2022/01/19 09:51:54;;;;;;;10.85;5.25;;;13.90;55.40;;;;;;5091761;28;20051;-73
2022/01/19 09:54:58;;;;;;;14.50;6.45;;;14.00;53.10;;;;;;5091684;28;20047;-72
2022/01/19 09:58:02;;;;;;;12.23;5.90;;;14.10;52.00;;;;;;5091597;28;20051;-73
2022/01/19 10:01:06;;;;;;;12.77;5.65;;;14.20;52.40;;;;;;5079079;28;20051;-74
2022/01/19 10:04:22;;;;;;;17.48;7.05;;;14.40;52.60;;;;;;5091484;28;20506;-73
2022/01/19 10:07:27;;;;;;;12.82;5.53;;;14.60;52.80;;;;;;5091311;28;20047;-75
2022/01/19 10:10:31;;;;;;;16.67;5.90;;;14.70;52.10;;;;;;5090645;28;20059;-72
2022/01/19 10:17:29;;;;;;;12.93;6.10;;;15.00;51.80;;;;;;5090758;28;20043;-74
2022/01/19 10:20:33;;;;;;;13.48;6.38;;;15.20;53.50;;;;;;5091345;28;20055;-74
2022/01/19 10:23:39;;;;;;;16.77;6.50;;;15.30;52.00;;;;;;5091167;28;20058;-74
2022/01/19 10:26:43;;;;;;;12.43;5.25;;;15.50;50.70;;;;;;5091113;28;20054;-73
2022/01/19 10:30:13;;;;;;;13.68;5.47;;;15.40;50.20;;;;;;5090769;28;20055;-76
2022/01/19 10:33:19;;;;;;;13.05;5.63;;;15.50;50.10;;;;;;5090961;28;20146;-78
2022/01/19 10:36:47;;;;;;;11.57;5.65;;;15.60;49.60;;;;;;5078575;28;20251;-77
2022/01/19 10:39:54;;;;;;;13.15;5.82;;;15.70;48.10;;;;;;5090883;28;20051;-74
2022/01/19 10:42:58;;;;;;;12.68;5.20;;;15.80;48.40;;;;;;5091135;28;20392;-75
2022/01/19 10:46:26;;;;;;;13.00;4.97;;;15.90;49.30;;;;;;5077021;28;20047;-75
2022/01/19 10:49:54;;;;;;;11.98;5.13;;;16.00;48.00;;;;;;5090027;28;20528;-77
2022/01/19 10:53:01;;;;;;;11.70;4.60;;;16.10;47.80;;;;;;5090308;28;20062;-72
2022/01/19 10:56:06;;;;;;;15.80;5.55;;;16.20;47.40;;;;;;5091700;28;20047;-75
2022/01/19 10:59:13;;;;;;;13.70;6.22;;;16.30;47.80;;;;;;5094982;28;20039;-75
2022/01/19 11:02:18;;;;;;;12.35;5.65;;;16.30;46.90;;;;;;5094976;28;20475;-74
2022/01/19 11:05:52;;;;;;;13.55;5.00;;;16.20;46.10;;;;;;5094778;28;20075;-74
2022/01/19 11:08:56;;;;;;;11.63;5.40;;;16.20;47.10;;;;;;5094095;28;20047;-70
2022/01/19 11:12:10;;;;;;;13.38;7.03;;;16.30;47.40;;;;;;5095109;28;20066;-73
2022/01/19 11:15:20;;;;;;;11.88;5.68;;;16.30;48.30;;;;;;5094512;28;20047;-72
2022/01/19 11:18:29;;;;;;;14.55;4.60;;;16.30;47.70;;;;;;5094365;28;20059;-73
2022/01/19 11:21:57;;;;;;;5.90;3.33;;;16.30;46.50;;;;;;5081957;28;20046;-72
2022/01/19 11:25:27;;;;;;;6.38;3.17;;;16.30;44.80;;;;;;5094782;28;20054;-74
2022/01/19 11:28:38;;;;;;;5.15;2.90;;;16.20;43.90;;;;;;5081769;28;20036;-74
2022/01/19 11:31:42;;;;;;;6.53;3.33;;;16.20;44.00;;;;;;5094510;28;20051;-75
2022/01/19 11:34:50;;;;;;;6.88;3.45;;;16.10;44.80;;;;;;5094344;28;20059;-73
2022/01/19 11:37:54;;;;;;;5.85;3.60;;;16.00;45.50;;;;;;5094544;28;20034;-72
2022/01/19 11:41:00;;;;;;;7.68;3.03;;;16.00;46.40;;;;;;5094293;28;20062;-72
2022/01/19 11:44:06;;;;;;;9.77;3.10;;;15.90;45.90;;;;;;5081465;28;20047;-73
2022/01/19 11:47:11;;;;;;;8.80;3.75;;;15.80;45.30;;;;;;5094158;28;20039;-70
2022/01/19 11:50:21;;;;;;;9.65;3.70;;;15.80;45.60;;;;;;5093711;28;20075;-74
2022/01/19 11:53:26;;;;;;;7.10;3.80;;;15.60;45.60;;;;;;5094077;28;20399;-75
2022/01/19 11:56:30;;;;;;;7.55;3.20;;;15.50;46.10;;;;;;5093796;28;20043;-77
2022/01/19 11:59:44;;;;;;;8.80;3.70;;;15.50;47.00;;;;;;5093609;28;20050;-77
2022/01/19 12:02:50;;;;;;;9.70;4.25;;;15.40;47.10;;;;;;5081225;28;20502;-73
2022/01/19 12:05:56;;;;;;;9.10;4.45;;;15.30;47.90;;;;;;5093615;28;20059;-74
2022/01/19 12:09:01;;;;;;;8.90;4.20;;;15.30;49.50;;;;;;5092300;28;20055;-72
2022/01/19 12:12:17;;;;;;;11.57;5.63;;;15.30;50.70;;;;;;5093104;28;20055;-72
2022/01/19 12:15:59;;;;;;;11.43;4.68;;;15.20;49.60;;;;;;5093697;28;20047;-72
2022/01/19 12:19:06;;;;;;;9.25;4.35;;;15.20;51.40;;;;;;5073049;28;20502;-72
2022/01/19 12:22:20;;;;;;;8.30;4.10;;;15.20;51.80;;;;;;5093245;28;20072;-73
2022/01/19 12:25:24;;;;;;;6.22;3.35;;;15.20;51.80;;;;;;5093644;28;20051;-72
2022/01/19 12:28:46;;;;;;;9.23;3.28;;;15.20;53.20;;;;;;5093294;28;20489;-72
2022/01/19 12:31:50;;;;;;;6.55;3.65;;;15.10;52.50;;;;;;5093363;28;20059;-72
2022/01/19 12:35:11;;;;;;;6.50;3.08;;;15.10;52.00;;;;;;5092277;28;20459;-72
2022/01/19 12:38:23;;;;;;;8.95;3.40;;;15.10;50.40;;;;;;5093127;28;20110;-72
2022/01/19 12:41:27;;;;;;;7.05;2.75;;;15.00;52.20;;;;;;5092953;28;20043;-73
2022/01/19 12:44:34;;;;;;;6.00;3.08;;;14.90;50.60;;;;;;5092850;28;20043;-73
2022/01/19 12:47:38;;;;;;;5.10;2.85;;;14.90;49.60;;;;;;5093000;28;20048;-73
2022/01/19 12:50:45;;;;;;;6.03;2.40;;;14.80;50.90;;;;;;5079297;28;20051;-72
2022/01/19 12:53:50;;;;;;;5.68;2.20;;;14.90;53.00;;;;;;5092058;28;20043;-73
2022/01/19 12:57:04;;;;;;;6.57;2.25;;;14.90;51.50;;;;;;5092623;28;20055;-73
2022/01/19 13:00:10;;;;;;;4.60;2.05;;;14.80;48.80;;;;;;5079874;28;20043;-73
2022/01/19 13:03:22;;;;;;;6.43;2.13;;;14.80;49.90;;;;;;5092535;28;20046;-72
2022/01/19 13:06:28;;;;;;;5.95;2.35;;;14.70;48.50;;;;;;5092692;28;20039;-72
2022/01/19 13:09:37;;;;;;;3.70;2.10;;;14.70;51.40;;;;;;5079824;28;20062;-74
2022/01/19 13:12:50;;;;;;;6.32;2.63;;;14.70;54.50;;;;;;5080690;28;20063;-73
2022/01/19 13:16:02;;;;;;;7.18;2.80;;;14.70;53.40;;;;;;5092678;28;20391;-75
2022/01/19 13:19:21;;;;;;;6.57;3.13;;;14.60;49.90;;;;;;5079906;28;20503;-74
2022/01/19 13:22:25;;;;;;;5.57;3.00;;;14.60;49.60;;;;;;5091908;28;20039;-74
2022/01/19 13:25:32;;;;;;;7.70;2.90;;;14.60;51.10;;;;;;5078450;28;20047;-74
2022/01/19 13:28:36;;;;;;;9.07;3.33;;;14.60;50.70;;;;;;5091660;28;20502;-74
2022/01/19 13:31:40;;;;;;;6.55;3.50;;;14.60;52.10;;;;;;5079414;28;20427;-73
2022/01/19 13:35:03;;;;;;;7.68;3.35;;;14.50;51.60;;;;;;5092095;28;20486;-74
2022/01/19 13:38:14;;;;;;;7.43;3.80;;;14.50;53.60;;;;;;5092108;28;20391;-73
2022/01/19 13:41:18;;;;;;;7.47;3.05;;;14.40;53.50;;;;;;5079390;28;20040;-75
2022/01/19 13:44:33;;;;;;;8.10;4.20;;;14.40;53.80;;;;;;5091849;28;20422;-73
2022/01/19 13:51:10;;;;;;;12.63;5.78;;;14.40;54.00;;;;;;5091827;28;20403;-74
2022/01/19 13:54:15;;;;;;;12.25;4.40;;;14.40;53.70;;;;;;5091445;28;20039;-73
2022/01/19 13:57:29;;;;;;;9.10;3.72;;;14.40;54.00;;;;;;5079015;28;20055;-73
2022/01/19 14:00:33;;;;;;;8.45;3.80;;;14.40;54.60;;;;;;5091622;28;20046;-73
2022/01/19 14:03:51;;;;;;;8.65;3.72;;;14.40;55.60;;;;;;5091756;28;20059;-73
2022/01/19 14:07:16;;;;;;;11.77;3.97;;;14.40;56.60;;;;;;5078938;28;20040;-74
2022/01/19 14:10:20;;;;;;;8.27;4.05;;;14.30;55.10;;;;;;5090903;28;20384;-74
2022/01/19 14:13:34;;;;;;;7.80;3.30;;;14.30;55.30;;;;;;5091326;28;20483;-73
2022/01/19 14:16:45;;;;;;;14.02;3.33;;;14.30;57.20;;;;;;5091225;28;20039;-74
2022/01/19 14:19:50;;;;;;;14.35;3.60;;;14.20;57.80;;;;;;5091522;28;20043;-73
2022/01/19 14:23:09;;;;;;;7.57;3.08;;;14.20;57.80;;;;;;5067483;28;20063;-74
2022/01/19 14:26:13;;;;;;;9.30;2.95;;;14.10;58.90;;;;;;5091283;28;20035;-75
2022/01/19 14:29:17;;;;;;;9.52;3.42;;;14.10;58.90;;;;;;5090984;28;20403;-73
2022/01/19 14:32:31;;;;;;;9.73;3.03;;;14.10;59.20;;;;;;5090789;28;20051;-73
2022/01/19 14:35:41;;;;;;;8.30;3.35;;;14.00;59.60;;;;;;5091207;28;20047;-73
2022/01/19 14:38:47;;;;;;;11.38;3.63;;;14.00;60.50;;;;;;5078516;28;20054;-73
2022/01/19 14:41:54;;;;;;;9.95;3.10;;;14.00;61.10;;;;;;5090955;28;20062;-73
2022/01/19 14:45:19;;;;;;;12.48;3.45;;;13.90;62.00;;;;;;5067870;28;20043;-74
2022/01/19 14:48:26;;;;;;;10.48;4.38;;;13.90;62.20;;;;;;5090942;28;20047;-74
2022/01/19 14:51:37;;;;;;;6.88;3.38;;;13.80;62.70;;;;;;5089410;28;20048;-74
2022/01/19 14:54:41;;;;;;;7.10;3.65;;;13.80;62.50;;;;;;5089836;28;20055;-75
2022/01/19 14:57:47;;;;;;;7.35;3.15;;;13.80;63.60;;;;;;5089772;28;20395;-74
2022/01/19 15:00:53;;;;;;;10.65;3.33;;;13.70;63.40;;;;;;5090277;28;20058;-72
2022/01/19 15:03:57;;;;;;;11.15;3.80;;;13.70;63.80;;;;;;5078398;28;20043;-73
2022/01/19 15:07:04;;;;;;;15.85;3.78;;;13.70;64.10;;;;;;5089796;28;20067;-73
2022/01/19 15:10:09;;;;;;;36.83;5.80;;;13.60;65.10;;;;;;5090321;28;20043;-72
2022/01/19 15:13:13;;;;;;;35.08;5.53;;;13.60;65.10;;;;;;5090556;28;20510;-72
2022/01/19 15:16:17;;;;;;;15.48;4.82;;;13.50;65.40;;;;;;5090625;28;20043;-70
2022/01/19 15:19:22;;;;;;;14.77;3.95;;;13.50;65.40;;;;;;5090539;28;20533;-72
2022/01/19 15:22:26;;;;;;;10.40;4.72;;;13.40;65.50;;;;;;5090580;28;20399;-71
2022/01/19 15:25:37;;;;;;;18.33;5.50;;;13.40;65.90;;;;;;5090846;28;20051;-72
2022/01/19 15:28:41;;;;;;;13.98;4.32;;;13.40;66.40;;;;;;5090601;28;20586;-73
2022/01/19 15:31:50;;;;;;;14.68;5.20;;;13.30;66.80;;;;;;5090445;28;20047;-73
2022/01/19 15:34:53;;;;;;;15.48;5.53;;;13.30;67.20;;;;;;5090197;28;20059;-73
2022/01/19 15:38:00;;;;;;;18.77;5.07;;;13.20;67.70;;;;;;5090047;28;20043;-74
2022/01/19 15:41:06;;;;;;;12.10;4.68;;;13.20;68.00;;;;;;5090072;28;20043;-73
2022/01/19 15:44:10;;;;;;;17.58;4.97;;;13.10;68.50;;;;;;5092992;28;20047;-74
2022/01/19 15:47:18;;;;;;;15.70;6.03;;;13.10;68.50;;;;;;5093739;28;20047;-74
2022/01/19 15:50:23;;;;;;;18.08;5.63;;;13.00;68.80;;;;;;5093484;28;20547;-72
2022/01/19 15:53:27;;;;;;;11.85;5.25;;;13.00;69.10;;;;;;5093962;28;20487;-73
2022/01/19 15:56:31;;;;;;;10.50;4.97;;;13.00;69.30;;;;;;5081546;28;20055;-72
2022/01/19 15:59:36;;;;;;;11.07;4.85;;;12.90;69.70;;;;;;5093467;28;20434;-74
2022/01/19 16:02:40;;;;;;;23.10;6.78;;;12.90;69.90;;;;;;5080882;28;20043;-73
2022/01/19 16:05:44;;;;;;;26.75;7.85;;;12.90;70.40;;;;;;5069472;28;20407;-72
2022/01/19 16:08:49;;;;;;;43.05;8.80;;;12.80;70.80;;;;;;5093201;28;20043;-72
2022/01/19 16:11:54;;;;;;;19.90;7.28;;;12.80;71.40;;;;;;5093196;28;20044;-74
2022/01/19 16:14:58;;;;;;;33.72;8.32;;;12.80;71.50;;;;;;5093567;28;20039;-72
2022/01/19 16:18:03;;;;;;;17.52;7.68;;;12.70;71.90;;;;;;5093525;28;20384;-72
2022/01/19 16:21:09;;;;;;;20.45;9.45;;;12.70;72.20;;;;;;5093476;28;20039;-75
2022/01/19 16:27:37;;;;;;;14.15;7.57;;;12.70;72.30;;;;;;5080687;28;20047;-75
2022/01/19 16:30:41;;;;;;;25.02;8.07;;;12.70;72.50;;;;;;5080538;28;20063;-74
2022/01/19 16:33:46;;;;;;;21.27;9.18;;;12.70;72.50;;;;;;5092685;28;20082;-72
2022/01/19 16:36:50;;;;;;;17.98;9.43;;;12.60;72.70;;;;;;5092872;28;20043;-73
2022/01/19 16:39:57;;;;;;;26.92;10.65;;;12.60;72.90;;;;;;5092455;28;20395;-74
2022/01/19 16:43:02;;;;;;;29.05;9.73;;;12.50;73.40;;;;;;5079873;28;20078;-73
2022/01/19 16:46:06;;;;;;;21.98;8.85;;;12.50;73.60;;;;;;5092058;28;20391;-71
2022/01/19 16:49:27;;;;;;;26.05;9.50;;;12.40;73.80;;;;;;5079327;28;20142;-71
2022/01/19 16:52:32;;;;;;;39.65;12.55;;;12.40;74.00;;;;;;5092226;28;20091;-72
2022/01/19 16:55:35;;;;;;;28.35;12.55;;;12.30;74.20;;;;;;5092386;28;20040;-73
2022/01/19 16:58:40;;;;;;;27.52;11.85;;;12.20;74.50;;;;;;5092087;28;20047;-69
2022/01/19 17:01:44;;;;;;;27.38;13.05;;;12.20;74.70;;;;;;5092267;28;20043;-71
2022/01/19 17:04:49;;;;;;;27.33;11.55;;;12.10;75.00;;;;;;5092155;28;20036;-72
2022/01/19 17:07:53;;;;;;;36.47;12.10;;;12.00;74.90;;;;;;5092252;28;20047;-75
2022/01/19 17:10:59;;;;;;;33.03;12.50;;;12.00;75.10;;;;;;5079410;28;20055;-75
2022/01/19 17:14:08;;;;;;;25.42;12.30;;;12.00;75.30;;;;;;5091805;28;20050;-75
2022/01/19 17:17:18;;;;;;;34.00;14.82;;;11.90;75.50;;;;;;5090856;28;20379;-74
2022/01/19 17:20:27;;;;;;;29.35;14.75;;;11.90;75.70;;;;;;5091029;28;20567;-75
2022/01/19 17:23:32;;;;;;;32.45;16.88;;;11.70;76.10;;;;;;5091668;28;20071;-73
2022/01/19 17:26:36;;;;;;;51.75;22.88;;;11.60;76.60;;;;;;5091570;28;20035;-74
2022/01/19 17:29:39;;;;;;;55.50;24.25;;;11.70;76.70;;;;;;5079107;28;20043;-73
2022/01/19 17:32:45;;;;;;;53.03;22.75;;;11.70;76.90;;;;;;5090575;28;20063;-70
2022/01/19 17:35:49;;;;;;;40.58;18.33;;;11.70;77.10;;;;;;5091655;28;20039;-73
2022/01/19 17:38:53;;;;;;;41.92;18.88;;;11.70;77.30;;;;;;5091824;28;20051;-74